createdAt,value
2018-12-07T00:01:43.702Z,96.55
2018-12-07T00:04:19.845Z,96.77
2018-12-07T00:06:51.857Z,97.22
2018-12-07T00:09:24.120Z,96.68
2018-12-07T00:12:00.113Z,96.27
2018-12-07T00:14:32.188Z,96.25
2018-12-07T00:17:08.351Z,96.43
2018-12-07T00:19:47.957Z,95.73
2018-12-07T00:22:18.641Z,95.76
2018-12-07T00:24:55.692Z,95.24
2018-12-07T00:27:27.768Z,95.90
2018-12-07T00:29:59.830Z,95.67
2018-12-07T00:32:35.956Z,95.83
2018-12-07T00:35:06.358Z,96.13
2018-12-07T00:37:39.291Z,96.62
2018-12-07T00:40:10.143Z,96.83
2018-12-07T00:42:42.471Z,97.02
2018-12-07T00:45:12.879Z,97.04
2018-12-07T00:47:45.042Z,96.72
2018-12-07T00:50:15.167Z,97.04
2018-12-07T00:52:51.584Z,96.90
2018-12-07T00:55:39.340Z,96.77
2018-12-07T00:58:16.064Z,96.87
2018-12-07T01:00:48.141Z,96.64
2018-12-07T01:03:24.432Z,96.48
2018-12-07T01:05:56.511Z,96.44
2018-12-07T01:08:29.492Z,96.27
2018-12-07T01:11:05.713Z,97.18
2018-12-07T01:13:37.839Z,96.75
2018-12-07T01:16:10.668Z,97.20
2018-12-07T01:18:47.678Z,97.11
2018-12-07T01:21:19.793Z,97.05
2018-12-07T01:23:52.709Z,96.69
2018-12-07T01:26:25.157Z,97.41
2018-12-07T01:28:55.507Z,97.03
2018-12-07T01:31:31.502Z,97.06
2018-12-07T01:34:04.113Z,97.36
2018-12-07T01:36:40.377Z,97.25
2018-12-07T01:39:13.417Z,97.68
2018-12-07T01:41:45.477Z,97.53
2018-12-07T01:44:22.615Z,97.73
2018-12-07T01:46:55.665Z,97.33
2018-12-07T01:49:31.970Z,97.56
2018-12-07T01:52:08.072Z,98.16
2018-12-07T01:54:44.288Z,97.90
2018-12-07T01:57:20.510Z,97.60
2018-12-07T01:59:53.417Z,97.49
2018-12-07T02:02:24.816Z,97.64
2018-12-07T02:04:57.181Z,97.47
2018-12-07T02:07:34.792Z,97.40
2018-12-07T02:10:08.147Z,97.19
2018-12-07T02:12:40.599Z,97.17
2018-12-07T02:15:16.892Z,97.41
2018-12-07T02:17:48.877Z,97.57
2018-12-07T02:20:21.853Z,97.47
2018-12-07T02:22:54.312Z,97.53
2018-12-07T02:25:24.412Z,97.86
2018-12-07T02:28:00.511Z,96.42
2018-12-07T02:30:32.724Z,96.76
2018-12-07T02:33:08.975Z,97.09
2018-12-07T02:35:45.042Z,97.07
2018-12-07T02:38:22.343Z,97.08
2018-12-07T02:40:58.575Z,97.27
2018-12-07T02:43:30.628Z,97.53
2018-12-07T02:46:01.047Z,97.61
2018-12-07T02:48:33.820Z,97.59
2018-12-07T02:51:06.149Z,97.63
2018-12-07T02:53:39.087Z,97.22
2018-12-07T02:56:11.155Z,97.24
2018-12-07T02:58:41.419Z,97.37
2018-12-07T03:01:18.491Z,97.19
2018-12-07T03:03:55.626Z,97.25
2018-12-07T03:06:35.909Z,97.22
2018-12-07T03:09:08.876Z,96.91
2018-12-07T03:11:46.090Z,97.30
2018-12-07T03:14:22.307Z,97.28
2018-12-07T03:16:59.182Z,97.08
2018-12-07T03:19:35.483Z,97.00
2018-12-07T03:22:07.515Z,97.44
2018-12-07T03:24:43.978Z,97.58
2018-12-07T03:27:16.319Z,97.52
2018-12-07T03:29:49.299Z,97.85
2018-12-07T03:32:21.855Z,96.65
2018-12-07T03:34:51.946Z,96.54
2018-12-07T03:37:28.879Z,96.66
2018-12-07T03:40:01.191Z,96.41
2018-12-07T03:42:38.380Z,96.49
2018-12-07T03:45:07.909Z,96.72
2018-12-07T03:47:38.687Z,96.85
2018-12-07T03:50:10.768Z,97.13
2018-12-07T03:52:43.133Z,97.60
2018-12-07T03:55:14.037Z,97.18
2018-12-07T03:57:46.473Z,97.62
2018-12-07T04:00:18.837Z,97.84
2018-12-07T04:02:55.235Z,98.18
2018-12-07T04:05:27.306Z,97.34
2018-12-07T04:08:00.244Z,97.05
2018-12-07T04:10:33.292Z,96.93
2018-12-07T04:13:09.336Z,97.02
2018-12-07T04:15:39.670Z,97.28
2018-12-07T04:18:15.692Z,97.08
2018-12-07T04:20:49.700Z,97.32
2018-12-07T04:23:25.773Z,96.25
2018-12-07T04:26:01.961Z,95.28
2018-12-07T04:28:40.505Z,95.40
2018-12-07T04:31:12.707Z,96.07
2018-12-07T04:33:49.047Z,96.09
2018-12-07T04:36:25.134Z,96.02
2018-12-07T04:38:55.336Z,96.16
2018-12-07T04:41:27.426Z,96.09
2018-12-07T04:43:58.044Z,96.28
2018-12-07T04:46:31.963Z,96.33
2018-12-07T04:49:08.176Z,96.76
2018-12-07T04:51:40.910Z,97.24
2018-12-07T04:54:13.129Z,96.82
2018-12-07T04:56:43.743Z,97.18
2018-12-07T04:59:16.679Z,97.15
2018-12-07T05:01:49.188Z,96.34
2018-12-07T05:04:21.377Z,95.53
2018-12-07T05:06:53.660Z,96.12
2018-12-07T05:09:25.924Z,96.55
2018-12-07T05:11:58.605Z,96.66
2018-12-07T05:14:37.614Z,96.77
2018-12-07T05:17:07.125Z,96.73
2018-12-07T05:19:39.914Z,96.31
2018-12-07T05:22:16.975Z,96.29
2018-12-07T05:24:49.023Z,97.08
2018-12-07T05:27:25.300Z,96.13
2018-12-07T05:29:58.140Z,96.41
2018-12-07T05:32:30.430Z,96.68
2018-12-07T05:35:02.573Z,96.84
2018-12-07T05:42:42.839Z,96.56
2018-12-07T05:45:13.350Z,96.79
2018-12-07T06:10:19.596Z,97.32
2018-12-07T06:12:53.632Z,97.49
2018-12-07T06:15:30.439Z,97.32
2018-12-07T06:18:07.000Z,97.15
2018-12-07T06:20:37.824Z,97.03
2018-12-07T06:23:09.875Z,97.01
2018-12-07T06:25:46.983Z,97.10
2018-12-07T06:28:17.078Z,96.86
2018-12-07T06:30:49.487Z,97.69
2018-12-07T06:33:21.532Z,97.33
2018-12-07T06:35:54.419Z,97.32
2018-12-07T06:38:26.624Z,97.53
2018-12-07T06:40:58.796Z,97.70
2018-12-07T06:43:30.988Z,97.33
2018-12-07T06:46:03.058Z,97.03
2018-12-07T06:48:38.939Z,97.17
2018-12-07T06:51:10.910Z,96.75
2018-12-07T06:53:42.873Z,96.52
2018-12-07T06:56:12.971Z,96.51
2018-12-07T06:58:43.792Z,96.25
2018-12-07T07:01:19.902Z,96.45
2018-12-07T07:03:56.228Z,96.66
2018-12-07T07:06:29.073Z,96.64
2018-12-07T07:09:01.438Z,97.11
2018-12-07T07:11:35.826Z,96.98
2018-12-07T07:14:12.263Z,96.63
2018-12-07T07:16:44.738Z,96.20
2018-12-07T07:19:17.853Z,95.93
2018-12-07T07:21:49.930Z,95.99
2018-12-07T07:24:22.473Z,95.25
2018-12-07T07:26:51.895Z,95.76
2018-12-07T07:29:22.594Z,96.28
2018-12-07T07:31:54.901Z,96.81
2018-12-07T07:34:27.042Z,96.55
2018-12-07T07:36:59.938Z,96.45
2018-12-07T07:39:32.428Z,96.18
2018-12-07T07:42:04.675Z,96.11
2018-12-07T07:44:34.509Z,95.93
2018-12-07T07:47:06.648Z,95.95
2018-12-07T07:49:38.537Z,96.08
2018-12-07T07:52:15.447Z,95.46
2018-12-07T07:54:47.690Z,95.62
2018-12-07T07:57:19.926Z,95.13
2018-12-07T07:59:49.906Z,94.71
2018-12-07T08:02:22.676Z,94.17
2018-12-07T08:04:54.635Z,93.95
2018-12-07T08:07:26.879Z,94.24
2018-12-07T08:09:58.734Z,93.41
2018-12-07T08:12:31.398Z,93.54
2018-12-07T08:27:36.422Z,92.26
2018-12-07T08:30:09.900Z,92.48
2018-12-07T08:32:42.804Z,92.29
2018-12-07T08:35:13.629Z,92.15
2018-12-07T08:37:50.182Z,92.19
2018-12-07T08:40:22.324Z,92.34
2018-12-07T08:42:53.269Z,91.84
2018-12-07T08:45:25.489Z,91.31
2018-12-07T08:48:02.112Z,90.73
2018-12-07T08:50:32.811Z,90.94
2018-12-07T08:53:05.696Z,91.32
2018-12-07T08:55:36.047Z,91.29
2018-12-07T08:58:06.261Z,91.02
2018-12-07T09:00:42.472Z,90.60
2018-12-07T09:03:14.505Z,90.83
2018-12-07T09:05:46.811Z,90.78
2018-12-07T09:08:22.988Z,90.52
2018-12-07T09:10:59.772Z,90.64
2018-12-07T09:13:30.408Z,90.29
2018-12-07T09:16:02.523Z,90.47
2018-12-07T09:18:32.799Z,90.24
2018-12-07T09:21:04.986Z,89.84
2018-12-07T09:23:41.212Z,89.52
2018-12-07T09:26:13.302Z,89.77
2018-12-07T09:28:46.301Z,89.56
2018-12-07T09:31:18.419Z,89.57
2018-12-07T09:33:54.504Z,89.47
2018-12-07T09:36:30.734Z,88.93
2018-12-07T09:39:07.057Z,88.54
2018-12-07T09:41:40.868Z,88.31
2018-12-07T09:44:13.073Z,88.75
2018-12-07T09:46:43.357Z,89.01
2018-12-07T09:49:16.249Z,89.15
2018-12-07T09:51:49.077Z,89.17
2018-12-07T09:54:21.337Z,88.29
2018-12-07T09:56:58.225Z,88.54
2018-12-07T09:59:34.489Z,88.81
2018-12-07T10:02:06.980Z,88.12
2018-12-07T10:04:39.244Z,88.35
2018-12-07T10:07:09.419Z,88.09
2018-12-07T10:09:41.468Z,86.54
2018-12-07T10:12:17.714Z,87.16
2018-12-07T10:14:49.898Z,87.33
2018-12-07T10:17:25.957Z,86.86
2018-12-07T10:19:58.147Z,86.01
2018-12-07T10:22:30.409Z,84.87
2018-12-07T10:25:02.784Z,84.93
2018-12-07T10:27:35.802Z,84.77
2018-12-07T10:45:19.340Z,79.91
2018-12-07T10:47:52.087Z,79.82
2018-12-07T10:50:28.468Z,79.73
2018-12-07T10:53:00.880Z,78.31
2018-12-07T10:55:31.823Z,78.27
2018-12-07T10:58:03.925Z,78.24
2018-12-07T11:00:45.503Z,77.56
2018-12-07T11:03:23.725Z,78.14
2018-12-07T11:06:02.134Z,77.33
2018-12-07T11:08:40.267Z,76.14
2018-12-07T11:11:17.950Z,76.60
2018-12-07T11:13:56.124Z,77.27
2018-12-07T11:16:34.086Z,77.02
2018-12-07T11:19:10.521Z,77.71
2018-12-07T11:21:52.823Z,78.51
2018-12-07T11:24:30.591Z,76.96
2018-12-07T11:27:13.569Z,75.83
2018-12-07T11:29:55.245Z,74.32
2018-12-07T11:32:34.658Z,74.92
2018-12-07T11:35:09.364Z,75.29
2018-12-07T11:37:43.028Z,74.40
2018-12-07T11:40:15.920Z,75.07
2018-12-07T11:42:51.028Z,75.73
2018-12-07T12:00:25.057Z,76.73
2018-12-07T12:02:57.316Z,76.54
2018-12-07T12:05:29.361Z,77.34
2018-12-07T12:08:01.689Z,76.74
2018-12-07T12:10:34.720Z,76.86
2018-12-07T12:13:10.792Z,77.08
2018-12-07T12:15:43.672Z,76.06
2018-12-07T12:18:16.657Z,76.50
2018-12-07T12:20:52.951Z,74.86
2018-12-07T12:23:25.391Z,75.10
2018-12-07T12:25:58.916Z,75.16
2018-12-07T12:28:35.072Z,75.01
2018-12-07T12:31:07.241Z,75.03
2018-12-07T12:33:39.486Z,74.60
2018-12-07T12:36:17.134Z,74.47
2018-12-07T12:38:49.800Z,73.17
2018-12-07T12:41:25.828Z,71.78
2018-12-07T12:43:55.856Z,69.81
2018-12-07T12:46:33.221Z,71.92
2018-12-07T12:49:05.631Z,71.25
2018-12-07T12:51:38.293Z,72.55
2018-12-07T12:54:10.929Z,71.75
2018-12-07T12:56:42.968Z,72.45
2018-12-07T13:01:46.197Z,72.22
2018-12-07T13:04:17.141Z,71.34
2018-12-07T13:06:49.517Z,72.64
2018-12-07T13:09:21.651Z,71.86
2018-12-07T13:11:57.871Z,71.93
2018-12-07T13:14:30.776Z,72.09
2018-12-07T13:17:07.019Z,72.35
2018-12-07T13:19:43.414Z,72.55
2018-12-07T13:22:13.627Z,71.54
2018-12-07T13:24:45.852Z,71.94
2018-12-07T13:27:18.306Z,70.96
2018-12-07T13:29:54.652Z,70.44
2018-12-07T13:32:26.705Z,71.06
2018-12-07T13:34:59.024Z,71.12
2018-12-07T13:37:31.177Z,70.10
2018-12-07T13:40:01.556Z,67.44
2018-12-07T13:42:34.566Z,67.19
2018-12-07T13:45:08.436Z,67.70
2018-12-07T13:47:41.416Z,67.21
2018-12-07T13:50:19.119Z,67.14
2018-12-07T13:52:51.822Z,67.34
2018-12-07T13:55:24.224Z,66.50
2018-12-07T13:58:02.436Z,66.84
2018-12-07T14:00:38.536Z,67.75
2018-12-07T14:03:10.672Z,68.56
2018-12-07T14:05:41.119Z,68.97
2018-12-07T14:08:11.503Z,70.07
2018-12-07T14:10:48.384Z,71.58
2018-12-07T14:13:19.591Z,72.07
2018-12-07T14:15:57.323Z,72.78
2018-12-07T14:18:28.445Z,73.68
2018-12-07T14:21:04.770Z,74.30
2018-12-07T14:23:35.931Z,75.34
2018-12-07T14:26:08.487Z,75.83
2018-12-07T14:28:41.394Z,75.55
2018-12-07T14:31:13.786Z,76.79
2018-12-07T14:33:46.076Z,77.69
2018-12-07T14:36:18.240Z,78.40
2018-12-07T14:38:50.489Z,78.69
2018-12-07T14:41:23.604Z,79.79
2018-12-07T14:43:59.988Z,80.57
2018-12-07T14:46:31.132Z,80.79
2018-12-07T14:49:02.130Z,80.96
2018-12-07T14:51:35.332Z,80.90
2018-12-07T14:54:08.321Z,80.69
2018-12-07T14:56:41.433Z,81.79
2018-12-07T14:59:17.669Z,81.57
2018-12-07T15:01:50.078Z,81.17
2018-12-07T15:04:22.681Z,82.33
2018-12-07T15:06:59.010Z,82.51
2018-12-07T15:09:32.119Z,82.27
2018-12-07T15:12:08.444Z,82.10
2018-12-07T15:14:44.727Z,82.39
2018-12-07T15:17:15.730Z,82.83
2018-12-07T15:19:48.164Z,82.86
2018-12-07T15:22:25.182Z,82.73
2018-12-07T15:24:59.440Z,83.24
2018-12-07T15:27:30.105Z,83.88
2018-12-07T15:30:02.435Z,84.13
2018-12-07T15:32:34.761Z,84.45
2018-12-07T15:35:08.678Z,84.21
2018-12-07T15:37:41.556Z,84.04
2018-12-07T15:40:14.515Z,84.56
2018-12-07T15:42:51.279Z,84.91
2018-12-07T15:45:28.685Z,86.19
2018-12-07T15:48:01.565Z,86.09
2018-12-07T15:50:33.784Z,86.31
2018-12-07T15:53:06.255Z,85.86
2018-12-07T15:55:39.073Z,85.58
2018-12-07T15:58:12.697Z,85.47
2018-12-07T16:00:45.512Z,85.91
2018-12-07T16:03:22.736Z,86.36
2018-12-07T16:05:55.087Z,86.85
2018-12-07T16:08:31.402Z,86.85
2018-12-07T16:11:03.554Z,87.24
2018-12-07T16:13:36.566Z,87.24
2018-12-07T16:16:07.384Z,87.77
2018-12-07T16:18:43.844Z,88.34
2018-12-07T16:21:16.641Z,87.93
2018-12-07T16:23:48.819Z,88.20
2018-12-07T16:26:20.996Z,87.95
2018-12-07T16:28:53.135Z,88.06
2018-12-07T16:31:25.215Z,88.63
2018-12-07T16:33:58.458Z,89.59
2018-12-07T16:36:31.718Z,89.68
2018-12-07T16:39:02.396Z,89.97
2018-12-07T16:41:34.613Z,89.85
2018-12-07T16:44:07.628Z,89.57
2018-12-07T16:46:39.785Z,89.43
2018-12-07T16:49:13.031Z,89.40
2018-12-07T16:51:46.040Z,89.66
2018-12-07T16:54:18.362Z,89.72
2018-12-07T16:56:54.637Z,90.77
2018-12-07T16:59:25.734Z,92.15
2018-12-07T17:02:03.053Z,91.65
2018-12-07T17:04:40.246Z,91.11
2018-12-07T17:07:13.265Z,90.88
2018-12-07T17:09:49.409Z,90.67
2018-12-07T17:12:25.727Z,90.48
2018-12-07T17:14:59.009Z,91.32
2018-12-07T17:17:32.210Z,91.67
2018-12-07T17:20:03.405Z,91.30
2018-12-07T17:22:36.318Z,91.58
2018-12-07T17:25:10.244Z,91.17
2018-12-07T17:27:43.306Z,91.05
2018-12-07T17:30:16.343Z,91.50
2018-12-07T17:32:49.491Z,92.05
2018-12-07T17:35:26.225Z,91.74
2018-12-07T17:37:57.219Z,91.89
2018-12-07T17:40:29.773Z,92.00
2018-12-07T17:43:02.640Z,92.71
2018-12-07T17:45:34.779Z,93.32
2018-12-07T17:48:10.972Z,94.71
2018-12-07T17:50:44.065Z,94.86
2018-12-07T17:53:16.386Z,95.16
2018-12-07T17:55:47.386Z,95.05
2018-12-07T17:58:20.133Z,95.30
2018-12-07T18:00:53.017Z,94.84
2018-12-07T18:03:25.115Z,94.54
2018-12-07T18:06:03.759Z,94.60
2018-12-07T18:08:37.531Z,94.25
2018-12-07T18:11:11.988Z,94.65
2018-12-07T18:13:45.110Z,94.54
2018-12-07T18:16:22.282Z,94.48
2018-12-07T18:18:57.240Z,94.70
2018-12-07T18:21:29.642Z,95.00
2018-12-07T18:24:07.737Z,94.95
2018-12-07T18:26:41.903Z,94.91
2018-12-07T18:29:15.893Z,94.28
2018-12-07T18:31:48.395Z,94.32
2018-12-07T18:34:21.325Z,94.67
2018-12-07T18:36:54.577Z,95.33
2018-12-07T18:39:27.712Z,94.67
2018-12-07T18:42:00.975Z,94.10
2018-12-07T18:44:34.078Z,94.70
2018-12-07T18:47:10.199Z,94.77
2018-12-07T18:49:40.490Z,94.63
2018-12-07T18:52:13.221Z,95.06
2018-12-07T18:54:49.657Z,95.13
2018-12-07T18:57:22.659Z,95.42
2018-12-07T18:59:56.021Z,95.26
2018-12-07T19:02:28.924Z,95.01
2018-12-07T19:05:01.703Z,95.18
2018-12-07T19:07:38.385Z,95.17
2018-12-07T19:10:11.778Z,95.57
2018-12-07T19:12:45.700Z,95.44
2018-12-07T19:15:22.139Z,95.11
2018-12-07T19:17:53.164Z,94.84
2018-12-07T19:20:26.031Z,95.18
2018-12-07T19:22:59.002Z,94.94
2018-12-07T19:25:32.019Z,94.95
2018-12-07T19:28:09.264Z,95.14
2018-12-07T19:30:42.046Z,95.70
2018-12-07T19:33:15.424Z,95.59
2018-12-07T19:35:48.313Z,96.07
2018-12-07T19:38:21.046Z,95.99
2018-12-07T19:40:51.983Z,96.54
2018-12-07T19:43:25.209Z,95.76
2018-12-07T19:45:57.449Z,95.42
2018-12-07T19:48:28.415Z,95.30
2018-12-07T19:51:05.294Z,95.38
2018-12-07T19:53:37.845Z,95.45
2018-12-07T19:56:13.968Z,95.67
2018-12-07T19:58:47.294Z,95.65
2018-12-07T20:01:20.285Z,95.73
2018-12-07T20:03:50.789Z,96.13
2018-12-07T20:06:23.791Z,96.15
2018-12-07T20:13:59.063Z,95.89
2018-12-07T20:16:31.173Z,95.87
2018-12-07T20:19:07.395Z,96.09
2018-12-07T20:21:43.653Z,95.85
2018-12-07T20:24:16.090Z,94.97
2018-12-07T20:26:48.592Z,95.37
2018-12-07T20:29:21.566Z,95.28
2018-12-07T20:31:54.911Z,95.50
2018-12-07T20:34:27.830Z,95.83
2018-12-07T20:37:00.586Z,95.83
2018-12-07T20:39:31.650Z,95.53
2018-12-07T20:42:04.703Z,95.18
2018-12-07T20:44:37.078Z,95.43
2018-12-07T20:47:10.331Z,95.23
2018-12-07T20:49:43.310Z,95.21
2018-12-07T20:52:15.548Z,95.11
2018-12-07T20:54:48.882Z,95.58
2018-12-07T20:57:21.941Z,96.14
2018-12-07T20:59:56.053Z,95.83
2018-12-07T21:02:29.010Z,95.97
2018-12-07T21:05:32.307Z,95.42
2018-12-07T21:11:38.718Z,94.96
2018-12-07T21:14:34.216Z,95.39
2018-12-07T21:17:30.259Z,95.18
2018-12-07T21:20:27.217Z,95.41
2018-12-07T21:23:00.288Z,95.47
2018-12-07T21:25:30.729Z,95.58
2018-12-07T21:28:03.689Z,95.74
2018-12-07T21:31:01.358Z,95.95
2018-12-07T21:35:23.598Z,96.04
2018-12-07T21:37:59.789Z,96.37
2018-12-07T21:40:32.822Z,96.14
2018-12-07T21:43:05.564Z,96.77
2018-12-07T21:45:36.730Z,97.08
2018-12-07T21:48:28.948Z,97.14
2018-12-07T21:51:43.466Z,97.23
2018-12-07T21:54:16.567Z,97.39
2018-12-07T21:56:49.554Z,97.22
2018-12-07T21:59:22.802Z,97.01
2018-12-07T22:01:59.610Z,96.91
2018-12-07T22:04:32.877Z,96.79
2018-12-07T22:07:06.061Z,96.94
2018-12-07T22:09:38.871Z,96.59
2018-12-07T22:12:15.171Z,96.62
2018-12-07T22:14:53.443Z,96.90
2018-12-07T22:17:26.350Z,97.14
2018-12-07T22:19:58.588Z,97.37
2018-12-07T22:22:29.659Z,97.50
2018-12-07T22:25:02.123Z,97.22
2018-12-07T22:27:34.458Z,97.20
2018-12-07T22:30:11.154Z,96.92
2018-12-07T22:32:43.907Z,97.08
2018-12-07T22:35:16.300Z,97.11
2018-12-07T22:37:49.498Z,97.11
2018-12-07T22:40:25.815Z,96.92
2018-12-07T22:42:57.973Z,97.15
2018-12-07T22:45:31.531Z,97.11
2018-12-07T22:48:04.208Z,97.26
2018-12-07T22:50:41.180Z,97.86
2018-12-07T22:53:13.722Z,97.77
2018-12-07T22:55:46.292Z,97.68
2018-12-07T22:58:18.391Z,97.50
2018-12-07T23:00:51.242Z,97.62
2018-12-07T23:03:22.000Z,97.81
2018-12-07T23:05:54.185Z,97.48
2018-12-07T23:08:27.119Z,98.81
2018-12-07T23:10:59.613Z,98.20
2018-12-07T23:13:35.856Z,98.40
2018-12-07T23:23:34.425Z,97.56
2018-12-07T23:26:06.601Z,97.91
2018-12-07T23:28:40.432Z,98.39
2018-12-07T23:31:10.765Z,97.55
2018-12-07T23:33:42.952Z,97.48
2018-12-07T23:36:15.835Z,97.53
2018-12-07T23:38:48.210Z,97.45
2018-12-07T23:41:24.569Z,97.69
2018-12-07T23:44:00.681Z,97.79
2018-12-07T23:46:32.910Z,97.81
2018-12-07T23:49:05.323Z,98.41
2018-12-07T23:51:41.510Z,98.71
2018-12-07T23:54:13.592Z,98.51
2018-12-07T23:56:45.702Z,99.13
2018-12-07T23:59:17.986Z,99.11
